»·PEaware :: N520MP KSNA-KPHX

N520MP :: KSNA-KPHX

FLIGHT INFORMATION

Flight Status: Arrived
Operator: Privately registered:
United States
More flights under this callsign
Pilot: Manuel P. (9695)
Aircraft: CANADAIR CL-600 CRJ-200
(CRJ2)
More flights by this aircraft type
Origin: KSNA John Wayne-Orange Co
United States
Destination: KPHX Phoenix Sky Harbor Intl
United States
More flights between these airports :: More routes between these airports
Route: +PIGGN2 CNERY BLH HYDRR1
File this flight plan on PilotEdge
Remarks:
Altitude:
(Current/Filed)
35,000ft
Speed:
(Current/Filed)
400kts
Departed: 18-Aug-17 02:25 PM
Arrived: 18-Aug-17 03:22 PM
Distance/Time
Traveled:
293nm/0:57
Distance/Time
To Go:
Arrived

Flight Plot

Page will automatically refresh every two minutes.

Flight plan parsing failed; only flown route is shown


Map Options




Map Legend


Flown Route
Filed Route
Departure Airport
Arrival Airport
Navaid (VOR, NDB)
Fix

Horizontal Profiles

Position Reports

Time Latitude Longitude Heading Altitude Ground
Speed
18-Aug-17 14:10 33.672416 -117.866864 210 61ft 0kts
18-Aug-17 14:11 33.672416 -117.866864 210 61ft 0kts
18-Aug-17 14:13 33.672416 -117.866864 210 61ft 0kts
18-Aug-17 14:14 33.672416 -117.866864 210 61ft 0kts
18-Aug-17 14:15 33.672416 -117.866864 210 61ft 0kts
18-Aug-17 14:16 33.672416 -117.866864 210 61ft 0kts
18-Aug-17 14:17 33.672416 -117.866864 210 61ft 0kts
18-Aug-17 14:18 33.672416 -117.866864 210 61ft 0kts
18-Aug-17 14:19 33.672416 -117.866864 210 61ft 0kts
18-Aug-17 14:20 33.672416 -117.866864 210 61ft 0kts
18-Aug-17 14:21 33.672416 -117.866864 210 61ft 0kts
18-Aug-17 14:22 33.672416 -117.866864 210 61ft 0kts
18-Aug-17 14:23 33.672407 -117.866871 211 61ft 0kts
18-Aug-17 14:24 33.672658 -117.867668 20 61ft 2kts
18-Aug-17 14:25 33.674721 -117.866088 27 61ft 14kts
18-Aug-17 14:26 33.679915 -117.862800 27 61ft 21kts
18-Aug-17 14:27 33.680643 -117.862998 299 61ft 3kts
18-Aug-17 14:28 33.681343 -117.865082 247 61ft 14kts
18-Aug-17 14:29 33.657695 -117.880296 207 572ft 157kts
18-Aug-17 14:30 33.611653 -117.893194 188 2867ft 199kts
18-Aug-17 14:31 33.550266 -117.884692 153 5114ft 262kts
18-Aug-17 14:32 33.494401 -117.821944 115 7894ft 288kts
18-Aug-17 14:33 33.479321 -117.733700 86 10748ft 286kts
18-Aug-17 14:34 33.507353 -117.644139 62 13326ft 304kts
18-Aug-17 14:35 33.551598 -117.550214 61 15052ft 348kts
18-Aug-17 14:36 33.585448 -117.436129 91 18647ft 396kts
18-Aug-17 14:37 33.587943 -117.299455 89 22382ft 421kts
18-Aug-17 14:38 33.591298 -117.155636 89 24317ft 444kts
18-Aug-17 14:39 33.594712 -117.005540 89 26700ft 475kts
18-Aug-17 14:40 33.598160 -116.843329 89 29055ft 499kts
18-Aug-17 14:41 33.601504 -116.675413 89 31095ft 508kts
18-Aug-17 14:42 33.604640 -116.506482 89 33049ft 506kts
18-Aug-17 14:43 33.607494 -116.340536 90 34858ft 492kts
18-Aug-17 14:44 33.610065 -116.178115 90 34858ft 487kts
18-Aug-17 14:45 33.612449 -116.014585 90 34861ft 497kts
18-Aug-17 14:46 33.614654 -115.848343 90 34860ft 499kts
18-Aug-17 14:47 33.616629 -115.682139 90 34861ft 500kts
18-Aug-17 14:48 33.616116 -115.515484 92 34862ft 502kts
18-Aug-17 14:49 33.612058 -115.347166 92 34863ft 509kts
18-Aug-17 14:50 33.607819 -115.181321 92 33583ft 498kts
18-Aug-17 14:51 33.603264 -115.013849 92 30175ft 507kts
18-Aug-17 14:52 33.599129 -114.847154 91 27829ft 497kts
18-Aug-17 14:53 33.581030 -114.683361 103 24991ft 502kts
18-Aug-17 14:54 33.549962 -114.523682 103 23061ft 485kts
18-Aug-17 14:55 33.520486 -114.373504 103 22879ft 441kts
18-Aug-17 14:56 33.494033 -114.237396 105 22878ft 407kts
18-Aug-17 14:57 33.468347 -114.109944 104 22880ft 383kts
18-Aug-17 14:58 33.444130 -113.989035 104 22883ft 365kts
18-Aug-17 14:59 33.420942 -113.873525 104 22831ft 353kts
18-Aug-17 15:00 33.396631 -113.752814 104 21946ft 384kts
18-Aug-17 15:01 33.371460 -113.628606 104 21941ft 386kts
18-Aug-17 15:02 33.346082 -113.504002 104 21940ft 385kts
18-Aug-17 15:03 33.321829 -113.372085 103 19751ft 436kts
18-Aug-17 15:04 33.295571 -113.229492 103 18012ft 432kts
18-Aug-17 15:05 33.274827 -113.097102 85 15171ft 388kts
18-Aug-17 15:06 33.276692 -112.982921 91 14922ft 304kts
18-Aug-17 15:07 33.278921 -112.890840 87 14497ft 267kts
18-Aug-17 15:08 33.281940 -112.798214 87 12443ft 291kts
18-Aug-17 15:09 33.286672 -112.700982 81 10985ft 281kts
18-Aug-17 15:10 33.296661 -112.616904 80 10972ft 232kts
18-Aug-17 15:11 33.305300 -112.546049 80 10956ft 207kts
18-Aug-17 15:12 33.313290 -112.478170 82 10966ft 212kts
18-Aug-17 15:13 33.321605 -112.402477 81 10969ft 247kts
18-Aug-17 15:14 33.327253 -112.314780 86 10444ft 290kts
18-Aug-17 15:15 33.336438 -112.214126 84 8962ft 301kts
18-Aug-17 15:16 33.345797 -112.126380 84 8939ft 234kts
18-Aug-17 15:17 33.348925 -112.052334 91 8124ft 235kts
18-Aug-17 15:18 33.347868 -111.968452 92 6422ft 272kts
18-Aug-17 15:19 33.346362 -111.877893 91 4689ft 267kts
18-Aug-17 15:20 33.354129 -111.799383 45 2996ft 230kts
18-Aug-17 15:21 33.406038 -111.798594 307 3010ft 193kts
18-Aug-17 15:22 33.428863 -111.850944 271 3006ft 164kts
18-Aug-17 15:23 33.428743 -111.900613 270 2780ft 141kts
18-Aug-17 15:24 33.429058 -111.946885 270 2086ft 141kts
18-Aug-17 15:25 33.428894 -111.993572 269 1266ft 134kts
18-Aug-17 15:26 33.428884 -112.015107 269 1139ft 12kts
18-Aug-17 15:27 33.427755 -112.017473 270 1139ft 11kts
18-Aug-17 15:28 33.427339 -112.021145 185 1139ft 6kts
18-Aug-17 15:29 33.425965 -112.020743 93 1139ft 5kts
18-Aug-17 15:30 33.425962 -112.020454 89 1139ft 0kts
18-Aug-17 15:31 33.425962 -112.020454 89 1139ft 0kts
18-Aug-17 15:32 33.425962 -112.020454 89 1139ft 0kts
18-Aug-17 15:33 33.425962 -112.020454 89 1139ft 0kts
18-Aug-17 15:34 33.425962 -112.020454 89 1139ft 0kts
18-Aug-17 15:35 33.425962 -112.020454 89 1139ft 0kts
18-Aug-17 15:36 33.425962 -112.020454 89 1139ft 0kts
18-Aug-17 15:37 33.425962 -112.020454 89 1139ft 0kts
18-Aug-17 15:38 33.425962 -112.020454 89 1139ft 0kts
18-Aug-17 15:39 33.425962 -112.020454 89 1139ft 0kts
18-Aug-17 15:40 33.425962 -112.020454 89 1139ft 0kts

Navigation Log

Ident Type
Flight plan parsing failed, navigation log unavailable